Time;durP1;ratioP1;P1;durP2;ratioP2;P2;SDS_P1;SDS_P2;PMS_P1;PMS_P2;Temp;Humidity;BMP_temperature;BMP_pressure;BME280_temperature;BME280_humidity;BME280_pressure;Samples;Min_cycle;Max_cycle;Signal;HPM_P1;HPM_P2
2021/01/18 00:00:35;;;;;;;30.10;16.70;;;2.80;99.90;;;;;;5072810;28;20104;-79
2021/01/18 00:03:05;;;;;;;26.52;15.38;;;2.80;99.90;;;;;;5072015;28;20051;-87
2021/01/18 00:05:31;;;;;;;27.90;16.30;;;2.80;99.90;;;;;;5068842;28;20105;-84
2021/01/18 00:07:56;;;;;;;28.35;15.68;;;2.90;99.90;;;;;;5071141;28;20107;-79
2021/01/18 00:10:24;;;;;;;29.35;15.38;;;2.80;99.90;;;;;;5071275;28;20067;-75
2021/01/18 00:12:54;;;;;;;27.23;16.13;;;2.90;99.90;;;;;;5071707;28;20077;-86
2021/01/18 00:15:22;;;;;;;26.35;15.93;;;2.90;99.90;;;;;;5072247;28;20044;-80
2021/01/18 00:17:48;;;;;;;26.92;15.57;;;2.80;99.90;;;;;;5072031;28;20021;-84
2021/01/18 00:20:16;;;;;;;27.63;15.50;;;2.90;99.90;;;;;;5068804;28;20086;-78
2021/01/18 00:22:43;;;;;;;27.20;15.82;;;2.90;99.90;;;;;;5070889;28;20020;-86
2021/01/18 00:25:20;;;;;;;27.80;15.30;;;2.90;99.90;;;;;;5071706;28;20090;-82
2021/01/18 00:27:46;;;;;;;28.13;15.32;;;2.90;99.90;;;;;;5071919;28;20469;-75
2021/01/18 00:30:16;;;;;;;25.75;14.45;;;3.00;99.90;;;;;;5070852;28;20040;-78
2021/01/18 00:32:42;;;;;;;32.78;15.15;;;3.00;99.90;;;;;;5071926;28;20024;-77
2021/01/18 00:35:10;;;;;;;25.17;15.50;;;3.00;99.90;;;;;;5075101;28;20492;-88
2021/01/18 00:37:43;;;;;;;24.80;14.57;;;3.00;99.90;;;;;;5074719;28;20027;-85
2021/01/18 00:40:10;;;;;;;26.35;13.85;;;3.00;99.90;;;;;;5075081;28;20020;-78
2021/01/18 00:42:37;;;;;;;20.63;13.27;;;3.00;99.90;;;;;;5074751;28;20088;-81
2021/01/18 00:45:05;;;;;;;27.40;15.38;;;3.00;99.90;;;;;;5075112;28;20078;-75
2021/01/18 00:47:30;;;;;;;25.98;14.90;;;3.10;99.90;;;;;;5074953;28;20499;-76
2021/01/18 00:49:57;;;;;;;27.80;15.27;;;3.10;99.90;;;;;;5074799;28;20032;-76
2021/01/18 00:52:22;;;;;;;20.92;13.35;;;3.10;99.90;;;;;;5074737;28;20012;-77
2021/01/18 00:54:48;;;;;;;23.38;13.35;;;3.10;99.90;;;;;;5074807;28;20571;-86
2021/01/18 00:57:14;;;;;;;23.48;13.40;;;3.00;99.90;;;;;;5075037;28;20025;-75
2021/01/18 00:59:39;;;;;;;22.98;14.52;;;3.00;99.90;;;;;;5074654;28;20043;-74
2021/01/18 01:02:05;;;;;;;23.45;14.32;;;3.00;99.90;;;;;;5074902;28;20040;-83
2021/01/18 01:04:31;;;;;;;23.15;13.75;;;3.00;99.90;;;;;;5075170;28;20066;-76
2021/01/18 01:06:56;;;;;;;29.48;13.82;;;3.00;99.90;;;;;;5074867;28;20028;-79
2021/01/18 01:09:22;;;;;;;25.73;14.45;;;3.00;99.90;;;;;;5075149;28;20040;-82
2021/01/18 01:11:48;;;;;;;23.85;14.18;;;3.00;99.90;;;;;;5075068;28;20020;-77
2021/01/18 01:14:14;;;;;;;23.98;13.00;;;3.00;99.90;;;;;;5075146;28;20385;-78
2021/01/18 01:16:43;;;;;;;24.30;13.57;;;3.00;99.90;;;;;;5074988;28;20020;-81
2021/01/18 01:19:09;;;;;;;18.33;11.65;;;3.00;99.90;;;;;;5074510;28;20036;-73
2021/01/18 01:21:36;;;;;;;20.60;13.27;;;3.00;99.90;;;;;;5074499;28;20024;-79
2021/01/18 01:24:01;;;;;;;23.75;14.07;;;3.00;99.90;;;;;;5087079;28;20028;-82
2021/01/18 01:26:27;;;;;;;21.90;13.50;;;3.00;99.90;;;;;;5076605;28;20020;-86
2021/01/18 01:28:53;;;;;;;22.33;14.20;;;2.90;99.90;;;;;;5074452;28;20127;-85
2021/01/18 01:31:19;;;;;;;27.02;15.23;;;2.90;99.90;;;;;;5074222;28;20427;-80
2021/01/18 01:33:45;;;;;;;20.27;13.23;;;2.90;99.90;;;;;;5074682;28;20664;-73
2021/01/18 01:36:11;;;;;;;25.85;15.65;;;2.90;99.90;;;;;;5074528;28;20517;-74
2021/01/18 01:38:37;;;;;;;25.98;13.40;;;2.90;99.90;;;;;;5074295;28;20103;-83
2021/01/18 01:41:03;;;;;;;23.98;14.18;;;2.90;99.90;;;;;;5074514;28;20515;-79
2021/01/18 01:43:29;;;;;;;27.02;15.00;;;2.80;99.90;;;;;;5073659;28;20013;-82
2021/01/18 01:45:55;;;;;;;26.52;13.80;;;2.80;99.90;;;;;;5073108;28;20016;-83
2021/01/18 01:48:21;;;;;;;25.65;15.73;;;2.80;99.90;;;;;;5074416;28;20040;-76
2021/01/18 01:50:47;;;;;;;25.15;14.00;;;2.80;99.90;;;;;;5074101;28;20039;-74
2021/01/18 01:53:33;;;;;;;26.45;14.43;;;2.80;99.90;;;;;;5074046;28;20021;-85
2021/01/18 01:56:00;;;;;;;26.10;15.18;;;2.80;99.90;;;;;;5073702;28;20056;-78
2021/01/18 01:58:27;;;;;;;23.02;14.10;;;2.80;99.90;;;;;;5073890;28;20020;-75
2021/01/18 02:00:56;;;;;;;25.75;14.57;;;2.80;99.90;;;;;;5073781;28;20040;-83
2021/01/18 02:03:42;;;;;;;27.15;14.73;;;2.80;99.90;;;;;;5072974;28;20132;-83
2021/01/18 02:06:09;;;;;;;22.75;13.88;;;2.80;99.90;;;;;;5073840;28;20388;-79
2021/01/18 02:08:36;;;;;;;24.20;14.90;;;2.80;99.90;;;;;;5073817;28;20060;-77
2021/01/18 02:11:03;;;;;;;25.45;14.70;;;2.90;99.90;;;;;;5074087;28;20423;-80
2021/01/18 02:13:44;;;;;;;25.33;15.05;;;2.80;99.90;;;;;;5073785;28;20073;-79
2021/01/18 02:16:28;;;;;;;28.73;16.63;;;2.80;99.90;;;;;;5073704;28;20016;-74
2021/01/18 02:19:18;;;;;;;22.55;14.13;;;2.80;99.90;;;;;;5073092;28;20028;-73
2021/01/18 02:22:38;;;;;;;24.15;13.50;;;2.70;99.90;;;;;;5071823;28;20025;-74
2021/01/18 02:25:08;;;;;;;24.83;14.38;;;2.70;99.90;;;;;;5022774;28;20062;-77
2021/01/18 02:28:09;;;;;;;25.02;14.85;;;2.70;99.90;;;;;;5064983;28;20032;-87
2021/01/18 02:30:53;;;;;;;28.25;15.15;;;2.70;99.90;;;;;;5069356;28;20039;-79
2021/01/18 02:33:32;;;;;;;24.70;14.63;;;2.70;99.90;;;;;;5072231;28;20496;-79
2021/01/18 02:36:31;;;;;;;27.33;16.25;;;2.70;99.90;;;;;;5072175;28;20036;-86
2021/01/18 02:39:24;;;;;;;25.60;15.65;;;2.70;99.90;;;;;;5066463;28;20017;-81
2021/01/18 02:41:59;;;;;;;30.05;15.43;;;2.60;99.90;;;;;;5061611;28;20035;-77
2021/01/18 02:44:27;;;;;;;24.80;14.48;;;2.60;99.90;;;;;;5072965;28;20056;-81
2021/01/18 02:46:54;;;;;;;23.23;14.55;;;2.60;99.90;;;;;;5072736;28;20032;-85
2021/01/18 02:49:21;;;;;;;23.92;14.15;;;2.50;99.90;;;;;;5072631;28;20480;-79
2021/01/18 02:51:52;;;;;;;23.50;13.98;;;2.60;99.90;;;;;;5072643;28;20043;-78
2021/01/18 02:54:18;;;;;;;25.98;14.45;;;2.60;99.90;;;;;;5072623;28;20032;-79
2021/01/18 02:56:51;;;;;;;23.83;14.20;;;2.60;99.90;;;;;;5073220;28;20033;-83
2021/01/18 02:59:17;;;;;;;27.30;14.18;;;2.60;99.90;;;;;;5072308;28;20025;-80
2021/01/18 03:02:12;;;;;;;22.88;14.32;;;2.50;99.90;;;;;;5071843;28;20089;-74
2021/01/18 03:04:54;;;;;;;27.17;14.65;;;2.50;99.90;;;;;;5065735;28;20047;-85
2021/01/18 03:07:50;;;;;;;22.95;13.85;;;2.50;99.90;;;;;;5071708;28;20024;-83
2021/01/18 03:10:46;;;;;;;24.60;15.18;;;2.50;99.90;;;;;;5071956;28;20037;-74
2021/01/18 03:13:21;;;;;;;27.27;14.88;;;2.40;99.90;;;;;;5070796;28;20051;-75
2021/01/18 03:15:53;;;;;;;22.80;13.05;;;2.40;99.90;;;;;;5072443;28;20164;-75
2021/01/18 03:18:22;;;;;;;27.70;12.70;;;2.50;99.90;;;;;;5072610;28;20016;-75
2021/01/18 03:20:49;;;;;;;24.40;13.85;;;2.50;99.90;;;;;;5072263;28;20025;-75
2021/01/18 03:23:15;;;;;;;25.27;14.75;;;2.50;99.90;;;;;;5072031;28;20008;-81
2021/01/18 03:25:47;;;;;;;22.27;13.43;;;2.50;99.90;;;;;;5072084;28;20036;-88
2021/01/18 03:28:13;;;;;;;28.92;15.63;;;2.50;99.90;;;;;;5070893;28;20024;-82
2021/01/18 03:30:38;;;;;;;23.38;13.63;;;2.40;99.90;;;;;;5072219;28;20040;-82
2021/01/18 03:33:04;;;;;;;27.08;13.52;;;2.50;99.90;;;;;;5071899;28;20017;-77
2021/01/18 03:35:30;;;;;;;26.02;14.57;;;2.40;99.90;;;;;;5070652;28;20031;-79
2021/01/18 03:37:57;;;;;;;25.10;14.45;;;2.40;99.90;;;;;;5071879;28;20058;-77
2021/01/18 03:40:25;;;;;;;21.73;13.75;;;2.40;99.90;;;;;;5072328;28;20483;-76
2021/01/18 03:42:59;;;;;;;24.05;14.13;;;2.40;99.90;;;;;;5072197;28;20036;-82
2021/01/18 03:45:26;;;;;;;24.13;13.63;;;2.40;99.90;;;;;;5072123;28;20021;-82
2021/01/18 03:47:52;;;;;;;25.05;14.52;;;2.40;99.90;;;;;;5070629;28;20032;-76
2021/01/18 03:50:18;;;;;;;22.50;13.75;;;2.40;99.90;;;;;;5072165;28;20024;-83
2021/01/18 03:52:48;;;;;;;22.95;13.77;;;2.50;99.90;;;;;;5071837;28;20025;-85
2021/01/18 03:55:14;;;;;;;25.20;14.55;;;2.50;99.90;;;;;;5071461;28;20107;-84
2021/01/18 03:57:41;;;;;;;23.27;13.65;;;2.40;99.90;;;;;;5072276;28;20103;-78
2021/01/18 04:00:07;;;;;;;25.10;13.85;;;2.40;99.90;;;;;;5072027;28;20069;-83
2021/01/18 04:02:33;;;;;;;23.20;13.25;;;2.40;99.90;;;;;;5072034;28;20052;-84
2021/01/18 04:04:59;;;;;;;24.20;13.25;;;2.50;99.90;;;;;;5071927;28;20492;-84
2021/01/18 04:07:25;;;;;;;21.35;13.32;;;2.50;99.90;;;;;;5071380;28;20127;-83
2021/01/18 04:09:50;;;;;;;22.75;12.85;;;2.50;99.90;;;;;;5075709;28;20052;-76
2021/01/18 04:12:16;;;;;;;25.58;13.80;;;2.50;99.90;;;;;;5076247;28;20128;-87
2021/01/18 04:14:42;;;;;;;27.10;14.07;;;2.50;99.90;;;;;;5075557;28;20033;-82
2021/01/18 04:17:08;;;;;;;21.05;13.50;;;2.50;99.90;;;;;;5075976;28;20036;-84
2021/01/18 04:19:33;;;;;;;25.95;14.77;;;2.50;99.90;;;;;;5075990;28;20378;-85
2021/01/18 04:21:59;;;;;;;24.75;14.88;;;2.50;99.90;;;;;;5075800;28;20477;-81
2021/01/18 04:24:25;;;;;;;25.70;14.23;;;2.50;99.90;;;;;;5075671;28;20074;-81
2021/01/18 04:26:50;;;;;;;24.90;14.85;;;2.50;99.90;;;;;;5074676;28;20074;-85
2021/01/18 04:29:16;;;;;;;23.25;13.95;;;2.50;99.90;;;;;;5074926;28;20032;-82
2021/01/18 04:31:42;;;;;;;26.05;14.45;;;2.50;99.90;;;;;;5075735;28;20108;-76
2021/01/18 04:34:09;;;;;;;23.58;14.32;;;2.40;99.90;;;;;;5076076;28;20024;-86
2021/01/18 04:36:38;;;;;;;26.27;15.77;;;2.40;99.90;;;;;;5075572;28;20516;-86
2021/01/18 04:39:06;;;;;;;27.33;14.77;;;2.40;99.90;;;;;;5075355;28;20354;-77
2021/01/18 04:41:37;;;;;;;23.95;14.18;;;2.40;99.90;;;;;;5075405;28;20013;-86
2021/01/18 04:44:11;;;;;;;26.58;14.55;;;2.30;99.90;;;;;;5075726;28;20666;-84
2021/01/18 04:46:40;;;;;;;26.63;14.77;;;2.30;99.90;;;;;;5075966;28;20388;-85
2021/01/18 04:49:07;;;;;;;29.73;16.20;;;2.30;99.90;;;;;;5075046;28;20519;-80
2021/01/18 04:51:55;;;;;;;26.73;14.90;;;2.30;99.90;;;;;;5075521;28;20156;-79
2021/01/18 04:54:23;;;;;;;25.50;15.77;;;2.30;99.90;;;;;;5074221;28;20743;-82
2021/01/18 04:57:11;;;;;;;28.10;16.00;;;2.30;99.90;;;;;;5075699;28;20023;-86
2021/01/18 04:59:45;;;;;;;27.52;16.10;;;2.20;99.90;;;;;;5075172;28;20044;-73
2021/01/18 05:02:20;;;;;;;28.38;15.48;;;2.30;99.90;;;;;;5074848;28;20044;-76
2021/01/18 05:04:48;;;;;;;28.00;15.45;;;2.30;99.90;;;;;;5075474;28;20500;-73
2021/01/18 05:07:35;;;;;;;28.13;14.77;;;2.30;99.90;;;;;;5075090;28;20020;-77
2021/01/18 05:10:04;;;;;;;27.45;15.18;;;2.30;99.90;;;;;;5075167;28;20068;-80
2021/01/18 05:12:31;;;;;;;32.80;15.73;;;2.40;99.90;;;;;;5075272;28;20016;-74
2021/01/18 05:14:59;;;;;;;27.42;15.77;;;2.40;99.90;;;;;;5075529;28;20437;-76
2021/01/18 05:17:48;;;;;;;27.60;16.02;;;2.40;99.90;;;;;;5074795;28;20024;-78
2021/01/18 05:20:18;;;;;;;26.45;16.02;;;2.40;99.90;;;;;;5064722;28;20028;-81
2021/01/18 05:22:50;;;;;;;26.55;15.80;;;2.40;99.90;;;;;;5074310;28;20029;-77
2021/01/18 05:25:17;;;;;;;35.25;16.40;;;2.40;99.90;;;;;;5074058;28;21056;-81
2021/01/18 05:28:01;;;;;;;27.17;15.32;;;2.50;99.90;;;;;;5073312;28;20105;-78
2021/01/18 05:30:29;;;;;;;25.13;15.15;;;2.50;99.90;;;;;;5073950;28;20074;-72
2021/01/18 05:33:09;;;;;;;27.05;15.80;;;2.50;99.90;;;;;;5074024;28;20036;-74
2021/01/18 05:35:40;;;;;;;27.27;16.05;;;2.60;99.90;;;;;;5073634;28;20024;-78
2021/01/18 05:38:11;;;;;;;26.63;16.05;;;2.60;99.90;;;;;;5073932;28;20068;-78
2021/01/18 05:40:41;;;;;;;29.23;15.05;;;2.60;99.90;;;;;;5071611;28;20384;-77
2021/01/18 05:43:07;;;;;;;29.85;15.32;;;2.70;99.90;;;;;;5074046;28;20017;-81
2021/01/18 05:45:36;;;;;;;25.90;15.60;;;2.70;99.90;;;;;;5074157;28;20021;-79
2021/01/18 05:48:03;;;;;;;27.27;15.63;;;2.70;99.90;;;;;;5074247;28;20432;-75
2021/01/18 05:50:30;;;;;;;31.73;15.73;;;2.70;99.90;;;;;;5073526;28;20036;-75
2021/01/18 05:52:56;;;;;;;27.98;15.95;;;2.70;99.90;;;;;;5071862;28;20047;-73
2021/01/18 05:55:30;;;;;;;27.27;15.43;;;2.80;99.90;;;;;;5073951;28;20043;-86
2021/01/18 05:58:03;;;;;;;28.70;14.95;;;2.80;99.90;;;;;;5060610;28;20071;-77
2021/01/18 06:00:34;;;;;;;27.40;15.50;;;2.80;99.90;;;;;;5073841;28;20020;-74
2021/01/18 06:03:05;;;;;;;27.17;16.37;;;2.90;99.90;;;;;;5059984;28;20048;-77
2021/01/18 06:05:33;;;;;;;27.90;15.60;;;2.90;99.90;;;;;;5074270;28;20358;-74
2021/01/18 06:08:16;;;;;;;28.83;16.60;;;2.90;99.90;;;;;;5073845;28;20097;-79
2021/01/18 06:10:43;;;;;;;26.23;15.40;;;3.00;99.90;;;;;;5073547;28;20063;-76
2021/01/18 06:13:18;;;;;;;29.50;14.90;;;2.90;99.90;;;;;;5073340;28;20481;-75
2021/01/18 06:15:45;;;;;;;26.42;15.35;;;2.90;99.90;;;;;;5066881;28;20036;-78
2021/01/18 06:18:17;;;;;;;28.45;15.55;;;2.90;99.90;;;;;;5073230;28;20070;-79
2021/01/18 06:20:45;;;;;;;;;;;3.00;99.90;;;;;;5073586;28;20566;-72
2021/01/18 06:23:20;;;;;;;26.10;14.77;;;2.90;99.90;;;;;;5072519;28;19911;-80
2021/01/18 06:25:49;;;;;;;27.08;15.75;;;2.90;99.90;;;;;;5073397;28;20095;-73
2021/01/18 06:28:28;;;;;;;26.83;16.20;;;2.90;99.90;;;;;;5072542;28;20024;-80
2021/01/18 06:31:06;;;;;;;27.70;15.48;;;2.90;99.90;;;;;;5068355;28;20033;-75
2021/01/18 06:33:44;;;;;;;27.77;15.93;;;2.90;99.90;;;;;;5071124;28;20461;-73
2021/01/18 06:36:21;;;;;;;30.35;15.95;;;2.80;99.90;;;;;;5071228;28;20024;-83
2021/01/18 06:38:50;;;;;;;27.50;15.10;;;2.80;99.90;;;;;;5061223;28;20112;-78
2021/01/18 06:41:27;;;;;;;29.02;16.60;;;2.90;99.90;;;;;;5072628;28;20441;-77
2021/01/18 06:43:53;;;;;;;25.58;14.80;;;2.90;99.90;;;;;;5060772;28;20059;-79
2021/01/18 06:46:43;;;;;;;24.65;14.63;;;2.90;99.90;;;;;;5072162;28;20082;-77
2021/01/18 06:49:09;;;;;;;24.08;14.13;;;2.90;99.90;;;;;;5061730;28;20055;-82
2021/01/18 06:51:40;;;;;;;29.33;15.55;;;2.90;99.90;;;;;;5072059;28;20048;-82
2021/01/18 06:54:18;;;;;;;26.48;15.73;;;2.90;99.90;;;;;;5061260;28;20020;-83
2021/01/18 06:56:55;;;;;;;26.20;15.35;;;2.90;99.90;;;;;;5072448;28;20033;-77
2021/01/18 06:59:47;;;;;;;27.77;14.93;;;2.90;99.90;;;;;;5073034;28;20415;-73
2021/01/18 07:02:27;;;;;;;26.65;15.35;;;3.00;99.90;;;;;;5072349;28;20095;-84
2021/01/18 07:05:06;;;;;;;25.98;15.02;;;3.10;99.90;;;;;;5072473;28;20092;-73
2021/01/18 07:07:34;;;;;;;29.90;15.02;;;3.10;99.90;;;;;;5071854;28;20587;-77
2021/01/18 07:10:10;;;;;;;25.30;14.77;;;3.10;99.90;;;;;;5072408;28;20098;-79
2021/01/18 07:12:37;;;;;;;28.52;15.65;;;3.20;99.90;;;;;;5072017;28;20069;-84
2021/01/18 07:15:07;;;;;;;26.35;15.38;;;3.20;99.90;;;;;;5072225;28;20017;-80
2021/01/18 07:17:44;;;;;;;29.00;15.88;;;3.20;99.90;;;;;;5072068;28;20027;-79
2021/01/18 07:20:37;;;;;;;25.65;15.27;;;3.30;99.90;;;;;;5071712;28;20023;-76
2021/01/18 07:23:08;;;;;;;27.50;15.55;;;3.30;99.90;;;;;;5061390;28;20464;-75
2021/01/18 07:25:41;;;;;;;31.17;16.25;;;3.40;99.90;;;;;;5071531;28;20499;-77
2021/01/18 07:28:08;;;;;;;32.70;16.17;;;3.50;99.90;;;;;;5064537;28;20021;-75
2021/01/18 07:30:36;;;;;;;27.63;16.50;;;3.50;99.90;;;;;;5068817;28;20714;-77
2021/01/18 07:33:20;;;;;;;27.95;15.50;;;3.50;99.90;;;;;;5071156;28;20099;-76
2021/01/18 07:35:47;;;;;;;30.73;15.85;;;3.50;99.90;;;;;;5071334;28;20503;-78
2021/01/18 07:38:18;;;;;;;25.73;15.57;;;3.60;99.90;;;;;;5071713;28;20101;-77
2021/01/18 07:41:12;;;;;;;27.20;16.95;;;3.60;99.90;;;;;;5071403;28;20033;-84
2021/01/18 07:43:43;;;;;;;34.40;16.35;;;3.70;99.90;;;;;;5069897;28;20025;-76
2021/01/18 07:46:24;;;;;;;27.10;15.98;;;3.70;99.90;;;;;;5071916;28;20032;-75
2021/01/18 07:48:50;;;;;;;30.10;15.60;;;3.70;99.90;;;;;;5071611;28;20086;-78
2021/01/18 07:51:20;;;;;;;28.67;16.05;;;3.80;99.90;;;;;;5070283;28;20377;-77
2021/01/18 07:53:46;;;;;;;27.77;15.82;;;3.90;99.90;;;;;;5070419;28;20481;-74
2021/01/18 07:56:22;;;;;;;27.25;16.50;;;3.90;99.90;;;;;;5070002;28;20647;-74
2021/01/18 07:58:55;;;;;;;28.50;16.25;;;3.90;99.90;;;;;;5065319;28;20077;-79
2021/01/18 08:01:27;;;;;;;43.15;16.05;;;4.00;99.90;;;;;;5070104;28;20056;-80
2021/01/18 08:03:53;;;;;;;35.28;15.40;;;4.00;99.90;;;;;;5065077;28;20020;-71
2021/01/18 08:06:19;;;;;;;33.30;16.15;;;4.00;99.90;;;;;;5069751;28;20040;-72
2021/01/18 08:08:45;;;;;;;26.83;15.68;;;4.00;99.90;;;;;;5070165;28;20089;-71
2021/01/18 08:11:16;;;;;;;27.27;14.35;;;4.00;99.90;;;;;;5069451;28;20115;-73
2021/01/18 08:13:43;;;;;;;29.70;14.32;;;4.00;99.90;;;;;;5074706;28;20012;-73
2021/01/18 08:16:10;;;;;;;28.83;14.30;;;4.00;99.90;;;;;;5082091;28;20380;-78
2021/01/18 08:18:47;;;;;;;26.73;13.88;;;4.10;99.90;;;;;;5073532;28;20017;-72
2021/01/18 08:21:35;;;;;;;24.90;14.05;;;4.10;99.90;;;;;;5070306;28;20025;-83
2021/01/18 08:24:08;;;;;;;23.75;13.27;;;4.20;99.90;;;;;;5071482;28;20021;-81
2021/01/18 08:27:14;;;;;;;24.27;12.45;;;4.20;99.90;;;;;;5071863;28;20016;-81
2021/01/18 08:29:52;;;;;;;23.42;13.25;;;4.20;99.90;;;;;;5070871;28;20478;-74
2021/01/18 08:32:24;;;;;;;23.92;13.48;;;4.20;99.90;;;;;;5067056;28;20374;-84
2021/01/18 08:34:53;;;;;;;30.85;13.90;;;4.20;99.90;;;;;;5063322;28;20498;-79
2021/01/18 08:37:19;;;;;;;30.63;13.95;;;4.30;99.90;;;;;;5069206;28;20047;-79
2021/01/18 08:40:02;;;;;;;25.95;12.80;;;4.40;99.90;;;;;;5070642;28;20100;-75
2021/01/18 08:42:35;;;;;;;20.40;12.88;;;4.40;99.90;;;;;;5069045;28;20062;-82
2021/01/18 08:45:08;;;;;;;27.17;13.75;;;4.50;99.90;;;;;;5066752;28;20029;-72
2021/01/18 08:47:41;;;;;;;23.92;13.82;;;4.50;99.90;;;;;;5069108;28;20020;-74
2021/01/18 08:50:26;;;;;;;27.92;13.45;;;4.40;99.90;;;;;;5064840;28;20036;-77
2021/01/18 08:52:55;;;;;;;34.53;13.70;;;4.40;99.90;;;;;;5070770;28;20025;-74
2021/01/18 08:55:30;;;;;;;27.27;14.50;;;4.40;99.90;;;;;;5065286;28;20070;-80
2021/01/18 08:58:00;;;;;;;48.42;25.65;;;4.50;99.90;;;;;;5072013;28;20031;-83
2021/01/18 09:00:46;;;;;;;40.90;23.95;;;4.50;99.90;;;;;;5058513;28;20031;-83
2021/01/18 09:03:17;;;;;;;41.30;22.35;;;4.60;99.90;;;;;;5069679;28;20052;-72
2021/01/18 09:05:43;;;;;;;152.73;65.53;;;4.60;99.90;;;;;;5053352;28;20362;-72
2021/01/18 09:08:10;;;;;;;74.07;37.92;;;4.70;99.90;;;;;;5072260;28;20107;-73
2021/01/18 09:10:35;;;;;;;53.20;24.52;;;4.70;99.90;;;;;;5071033;28;20032;-72
2021/01/18 09:13:06;;;;;;;29.08;16.10;;;4.80;99.90;;;;;;5073131;28;20104;-73
2021/01/18 09:15:33;;;;;;;98.00;53.33;;;4.70;99.90;;;;;;5072956;28;20025;-73
2021/01/18 09:18:08;;;;;;;41.42;20.77;;;4.80;99.90;;;;;;5066341;28;20035;-76
2021/01/18 09:20:40;;;;;;;29.90;18.55;;;4.80;99.90;;;;;;5073314;28;20025;-73
2021/01/18 09:23:08;;;;;;;46.13;24.80;;;4.90;99.90;;;;;;5073179;28;20035;-73
2021/01/18 09:25:35;;;;;;;30.50;18.30;;;4.90;99.90;;;;;;5072339;28;20042;-73
2021/01/18 09:28:09;;;;;;;71.18;37.22;;;4.90;99.90;;;;;;5068292;28;20028;-73
2021/01/18 09:30:37;;;;;;;28.77;16.30;;;5.00;99.90;;;;;;5073044;28;20082;-75
2021/01/18 09:33:07;;;;;;;35.25;20.13;;;5.00;99.90;;;;;;5073775;28;20012;-74
2021/01/18 09:35:38;;;;;;;25.30;13.90;;;5.20;99.90;;;;;;5073773;28;20039;-73
2021/01/18 09:38:05;;;;;;;27.27;14.77;;;5.20;99.90;;;;;;5073376;28;20029;-73
2021/01/18 09:40:36;;;;;;;28.95;13.88;;;5.20;99.90;;;;;;5071707;28;20111;-71
2021/01/18 09:43:04;;;;;;;18.57;12.30;;;5.20;99.90;;;;;;5072243;28;20024;-73
2021/01/18 09:45:30;;;;;;;21.55;12.63;;;5.30;99.90;;;;;;5072333;28;20031;-73
2021/01/18 09:48:07;;;;;;;23.40;12.27;;;5.30;99.90;;;;;;5073039;28;20036;-73
2021/01/18 09:50:37;;;;;;;25.20;12.63;;;5.30;99.90;;;;;;5071478;28;20404;-74
2021/01/18 09:53:07;;;;;;;19.85;13.32;;;5.40;99.90;;;;;;5070073;28;20020;-75
2021/01/18 09:55:48;;;;;;;17.65;11.32;;;5.40;99.90;;;;;;5072195;28;20028;-76
2021/01/18 09:58:20;;;;;;;37.30;20.83;;;5.50;99.90;;;;;;5062033;28;20021;-75
2021/01/18 10:00:49;;;;;;;34.75;19.58;;;5.50;99.90;;;;;;5073751;28;20029;-73
2021/01/18 10:03:34;;;;;;;21.45;13.60;;;5.60;99.90;;;;;;5060253;28;20112;-73
2021/01/18 10:06:24;;;;;;;21.42;13.45;;;5.60;99.90;;;;;;5069141;28;20024;-72
2021/01/18 10:08:54;;;;;;;19.23;12.15;;;5.80;99.90;;;;;;5070404;28;20041;-78
2021/01/18 10:11:44;;;;;;;26.23;12.77;;;6.00;99.90;;;;;;5069622;28;20065;-75
2021/01/18 10:14:18;;;;;;;19.83;12.85;;;6.20;99.90;;;;;;5059966;28;20056;-73
2021/01/18 10:17:06;;;;;;;27.48;13.13;;;6.20;99.90;;;;;;5071070;28;20105;-73
2021/01/18 10:19:34;;;;;;;32.60;14.98;;;6.30;99.90;;;;;;5070731;28;20024;-73
2021/01/18 10:22:01;;;;;;;25.58;13.18;;;6.30;99.90;;;;;;5071314;28;20020;-73
2021/01/18 10:24:36;;;;;;;22.90;12.27;;;6.40;99.90;;;;;;5070740;28;20032;-73
2021/01/18 10:27:04;;;;;;;23.65;12.52;;;6.40;99.90;;;;;;5066701;28;20020;-73
2021/01/18 10:29:30;;;;;;;21.20;11.05;;;6.40;99.90;;;;;;5075461;28;20021;-73
2021/01/18 10:31:57;;;;;;;17.40;10.40;;;6.40;99.90;;;;;;5076243;28;20451;-73
2021/01/18 10:34:22;;;;;;;25.42;11.88;;;6.40;99.90;;;;;;5076570;28;20021;-74
2021/01/18 10:36:51;;;;;;;21.30;11.07;;;6.60;99.90;;;;;;5076132;28;20500;-74
2021/01/18 10:39:28;;;;;;;20.50;10.90;;;6.70;99.80;;;;;;5076314;28;20016;-73
2021/01/18 10:42:20;;;;;;;22.75;11.40;;;6.80;99.30;;;;;;5078632;28;20021;-73
2021/01/18 10:44:51;;;;;;;19.58;11.35;;;6.70;99.20;;;;;;5074506;28;20035;-74
2021/01/18 10:47:25;;;;;;;23.73;11.05;;;6.70;99.50;;;;;;5067432;28;20021;-73
2021/01/18 10:49:52;;;;;;;20.20;10.55;;;6.70;99.60;;;;;;5068996;28;20040;-75
2021/01/18 10:52:18;;;;;;;24.30;11.27;;;6.70;99.50;;;;;;5071423;28;20528;-77
2021/01/18 10:55:05;;;;;;;19.60;10.48;;;6.80;99.50;;;;;;5067753;28;20362;-74
2021/01/18 10:57:37;;;;;;;16.40;10.20;;;6.90;99.30;;;;;;5066153;28;20119;-78
2021/01/18 11:00:10;;;;;;;17.50;10.85;;;6.90;99.30;;;;;;5070117;28;20016;-76
2021/01/18 11:02:37;;;;;;;21.65;11.15;;;7.00;99.10;;;;;;5069472;28;20172;-76
2021/01/18 11:05:04;;;;;;;19.58;11.65;;;7.00;99.10;;;;;;5070422;28;20044;-74
2021/01/18 11:07:30;;;;;;;26.48;12.13;;;7.00;99.00;;;;;;5070381;28;20021;-73
2021/01/18 11:10:00;;;;;;;24.85;13.95;;;7.00;99.10;;;;;;5062299;28;20032;-73
2021/01/18 11:12:43;;;;;;;25.38;13.48;;;7.10;99.10;;;;;;5070571;28;20009;-74
2021/01/18 11:15:11;;;;;;;25.60;13.38;;;7.10;99.30;;;;;;5069864;28;20388;-74
2021/01/18 11:17:37;;;;;;;24.25;12.18;;;7.10;99.30;;;;;;5070182;28;20020;-76
2021/01/18 11:20:08;;;;;;;28.20;12.98;;;7.10;99.60;;;;;;5069905;28;20031;-73
2021/01/18 11:22:34;;;;;;;23.60;11.70;;;7.30;99.20;;;;;;5070897;28;20012;-74
2021/01/18 11:25:00;;;;;;;23.35;12.38;;;7.30;99.10;;;;;;5070580;28;20029;-73
2021/01/18 11:27:26;;;;;;;21.90;13.23;;;7.40;98.90;;;;;;5069587;28;20364;-74
2021/01/18 11:29:51;;;;;;;23.63;13.32;;;7.50;98.80;;;;;;5070317;28;20044;-74
2021/01/18 11:32:18;;;;;;;25.83;12.63;;;7.50;98.80;;;;;;5070379;28;20464;-71
2021/01/18 11:34:43;;;;;;;23.73;12.43;;;7.60;98.50;;;;;;5069977;28;20062;-71
2021/01/18 11:37:09;;;;;;;20.63;10.85;;;7.70;98.40;;;;;;5069574;28;20106;-72
2021/01/18 11:39:38;;;;;;;23.40;10.85;;;7.80;98.00;;;;;;5064607;28;20020;-72
2021/01/18 11:42:06;;;;;;;20.42;11.18;;;8.00;97.70;;;;;;5069730;28;20028;-73
2021/01/18 11:44:32;;;;;;;22.55;11.35;;;8.10;97.20;;;;;;5070284;28;20029;-77
2021/01/18 11:46:59;;;;;;;20.63;11.98;;;8.20;97.10;;;;;;5069604;28;20087;-73
2021/01/18 11:49:25;;;;;;;23.27;13.38;;;8.30;97.10;;;;;;5069889;28;20435;-73
2021/01/18 11:51:54;;;;;;;35.45;15.85;;;8.40;97.20;;;;;;5070611;28;20085;-76
2021/01/18 11:54:20;;;;;;;37.55;16.73;;;8.40;97.30;;;;;;5061338;28;20365;-75
2021/01/18 11:56:46;;;;;;;28.70;14.48;;;8.50;97.10;;;;;;5067761;28;20024;-77
2021/01/18 11:59:12;;;;;;;30.15;14.32;;;8.50;96.90;;;;;;5070290;28;20031;-75
2021/01/18 12:01:41;;;;;;;26.33;13.35;;;8.50;97.30;;;;;;5070010;28;20497;-74
2021/01/18 12:04:07;;;;;;;30.60;13.43;;;8.60;97.40;;;;;;5070461;28;20044;-74
2021/01/18 12:06:35;;;;;;;25.73;13.02;;;8.60;97.20;;;;;;5070115;28;20033;-73
2021/01/18 12:09:00;;;;;;;32.90;14.10;;;8.70;97.10;;;;;;5069587;28;20393;-72
2021/01/18 12:11:27;;;;;;;34.47;13.45;;;8.80;96.70;;;;;;5070081;28;20033;-73
2021/01/18 12:13:53;;;;;;;26.63;13.65;;;8.90;96.60;;;;;;5070212;28;20031;-72
2021/01/18 12:16:23;;;;;;;23.45;13.25;;;8.90;96.50;;;;;;5070353;28;20107;-74
2021/01/18 12:18:49;;;;;;;29.63;16.48;;;8.90;96.70;;;;;;5070375;28;20532;-73
2021/01/18 12:21:14;;;;;;;28.38;14.98;;;9.00;96.60;;;;;;5070290;28;20024;-73
2021/01/18 12:23:40;;;;;;;25.85;15.25;;;9.00;96.70;;;;;;5070374;28;20493;-73
2021/01/18 12:26:07;;;;;;;30.55;15.65;;;9.00;96.80;;;;;;5068748;28;20021;-75
2021/01/18 12:28:33;;;;;;;24.42;14.27;;;8.90;97.00;;;;;;5067717;28;20033;-74
2021/01/18 12:30:59;;;;;;;30.63;13.73;;;8.90;97.10;;;;;;5073739;28;20036;-73
2021/01/18 12:33:25;;;;;;;24.75;13.60;;;9.00;97.00;;;;;;5073820;28;20146;-74
2021/01/18 12:35:51;;;;;;;21.17;11.90;;;9.10;96.30;;;;;;5073534;28;20104;-73
2021/01/18 12:38:17;;;;;;;19.70;11.20;;;9.30;96.20;;;;;;5073671;28;20125;-72
2021/01/18 12:40:43;;;;;;;22.65;11.90;;;9.40;96.40;;;;;;5073049;28;20480;-73
2021/01/18 12:43:09;;;;;;;19.45;12.45;;;9.50;96.30;;;;;;5073501;28;20021;-73
2021/01/18 12:45:34;;;;;;;25.73;12.32;;;9.50;96.10;;;;;;5074064;28;20043;-73
2021/01/18 12:48:00;;;;;;;26.48;13.85;;;9.50;95.90;;;;;;5073974;28;20078;-83
2021/01/18 12:50:26;;;;;;;17.65;11.38;;;9.40;95.90;;;;;;5073159;28;20039;-76
2021/01/18 12:52:51;;;;;;;20.13;12.30;;;9.40;96.40;;;;;;5069664;28;20648;-87
2021/01/18 12:55:20;;;;;;;36.33;13.48;;;9.30;96.30;;;;;;5073723;28;20415;-74
2021/01/18 12:57:45;;;;;;;28.20;13.43;;;9.20;96.60;;;;;;5074344;28;20059;-75